sensor_id;sensor_type;location;lat;lon;timestamp;P1;durP1;ratioP1;P2;durP2;ratioP2
54143;SDS011;40050;47.324;18.792;2024-01-11T00:00:58;63.93;;;25.83;;
54143;SDS011;40050;47.324;18.792;2024-01-11T00:02:54;61.23;;;25.43;;
54143;SDS011;40050;47.324;18.792;2024-01-11T00:04:55;64.78;;;26.13;;
54143;SDS011;40050;47.324;18.792;2024-01-11T00:06:56;55.49;;;24.74;;
54143;SDS011;40050;47.324;18.792;2024-01-11T00:08:57;67.00;;;25.83;;
54143;SDS011;40050;47.324;18.792;2024-01-11T00:10:58;58.66;;;25.24;;
54143;SDS011;40050;47.324;18.792;2024-01-11T00:12:59;64.24;;;26.03;;
54143;SDS011;40050;47.324;18.792;2024-01-11T00:15:00;61.59;;;26.14;;
54143;SDS011;40050;47.324;18.792;2024-01-11T00:17:01;55.69;;;25.74;;
54143;SDS011;40050;47.324;18.792;2024-01-11T00:19:01;61.45;;;26.34;;
54143;SDS011;40050;47.324;18.792;2024-01-11T00:21:02;64.48;;;25.84;;
54143;SDS011;40050;47.324;18.792;2024-01-11T00:23:03;56.40;;;25.34;;
54143;SDS011;40050;47.324;18.792;2024-01-11T00:25:04;55.96;;;24.75;;
54143;SDS011;40050;47.324;18.792;2024-01-11T00:27:05;62.32;;;24.85;;
54143;SDS011;40050;47.324;18.792;2024-01-11T00:29:06;50.39;;;22.36;;
54143;SDS011;40050;47.324;18.792;2024-01-11T00:31:07;53.34;;;22.96;;
54143;SDS011;40050;47.324;18.792;2024-01-11T00:33:08;48.72;;;20.77;;
54143;SDS011;40050;47.324;18.792;2024-01-11T00:35:09;50.34;;;22.06;;
54143;SDS011;40050;47.324;18.792;2024-01-11T00:37:09;53.20;;;22.36;;
54143;SDS011;40050;47.324;18.792;2024-01-11T00:39:10;49.45;;;21.96;;
54143;SDS011;40050;47.324;18.792;2024-01-11T00:41:11;49.65;;;22.26;;
54143;SDS011;40050;47.324;18.792;2024-01-11T00:43:12;52.70;;;23.55;;
54143;SDS011;40050;47.324;18.792;2024-01-11T00:45:13;50.85;;;23.84;;
54143;SDS011;40050;47.324;18.792;2024-01-11T00:47:14;59.37;;;26.42;;
54143;SDS011;40050;47.324;18.792;2024-01-11T00:49:15;69.67;;;30.19;;
54143;SDS011;40050;47.324;18.792;2024-01-11T00:51:16;78.92;;;33.47;;
54143;SDS011;40050;47.324;18.792;2024-01-11T00:53:17;83.57;;;33.17;;
54143;SDS011;40050;47.324;18.792;2024-01-11T00:55:18;79.88;;;34.26;;
54143;SDS011;40050;47.324;18.792;2024-01-11T00:57:19;87.09;;;35.56;;
54143;SDS011;40050;47.324;18.792;2024-01-11T00:59:20;82.92;;;34.17;;
54143;SDS011;40050;47.324;18.792;2024-01-11T01:01:21;78.69;;;34.27;;
54143;SDS011;40050;47.324;18.792;2024-01-11T01:03:22;79.04;;;31.39;;
54143;SDS011;40050;47.324;18.792;2024-01-11T01:05:23;81.26;;;33.67;;
54143;SDS011;40050;47.324;18.792;2024-01-11T01:07:24;79.85;;;34.57;;
54143;SDS011;40050;47.324;18.792;2024-01-11T01:09:25;92.33;;;36.86;;
54143;SDS011;40050;47.324;18.792;2024-01-11T01:11:26;96.07;;;38.25;;
54143;SDS011;40050;47.324;18.792;2024-01-11T01:13:27;83.38;;;33.08;;
54143;SDS011;40050;47.324;18.792;2024-01-11T01:15:28;81.08;;;32.78;;
54143;SDS011;40050;47.324;18.792;2024-01-11T01:17:29;75.36;;;30.40;;
54143;SDS011;40050;47.324;18.792;2024-01-11T01:19:29;61.78;;;26.33;;
54143;SDS011;40050;47.324;18.792;2024-01-11T01:21:30;56.22;;;24.34;;
54143;SDS011;40050;47.324;18.792;2024-01-11T01:23:31;57.77;;;23.84;;
54143;SDS011;40050;47.324;18.792;2024-01-11T01:25:32;53.35;;;22.35;;
54143;SDS011;40050;47.324;18.792;2024-01-11T01:27:33;44.35;;;20.46;;
54143;SDS011;40050;47.324;18.792;2024-01-11T01:29:34;45.32;;;20.37;;
54143;SDS011;40050;47.324;18.792;2024-01-11T01:31:35;42.82;;;19.47;;
54143;SDS011;40050;47.324;18.792;2024-01-11T01:33:36;43.00;;;18.38;;
54143;SDS011;40050;47.324;18.792;2024-01-11T01:35:37;42.62;;;19.07;;
54143;SDS011;40050;47.324;18.792;2024-01-11T01:37:38;43.39;;;18.97;;
54143;SDS011;40050;47.324;18.792;2024-01-11T01:39:39;42.50;;;19.87;;
54143;SDS011;40050;47.324;18.792;2024-01-11T01:41:40;45.07;;;19.57;;
54143;SDS011;40050;47.324;18.792;2024-01-11T01:43:40;46.31;;;18.87;;
54143;SDS011;40050;47.324;18.792;2024-01-11T01:45:41;44.88;;;19.67;;
54143;SDS011;40050;47.324;18.792;2024-01-11T01:47:43;47.93;;;20.16;;
54143;SDS011;40050;47.324;18.792;2024-01-11T01:49:44;50.22;;;21.35;;
54143;SDS011;40050;47.324;18.792;2024-01-11T01:51:45;50.52;;;21.26;;
54143;SDS011;40050;47.324;18.792;2024-01-11T01:53:46;51.30;;;22.35;;
54143;SDS011;40050;47.324;18.792;2024-01-11T01:55:47;46.25;;;19.77;;
54143;SDS011;40050;47.324;18.792;2024-01-11T01:57:49;46.55;;;21.46;;
54143;SDS011;40050;47.324;18.792;2024-01-11T01:59:52;45.20;;;20.46;;
54143;SDS011;40050;47.324;18.792;2024-01-11T02:01:53;46.74;;;19.77;;
54143;SDS011;40050;47.324;18.792;2024-01-11T02:03:55;47.47;;;21.45;;
54143;SDS011;40050;47.324;18.792;2024-01-11T02:05:56;49.86;;;22.25;;
54143;SDS011;40050;47.324;18.792;2024-01-11T02:07:57;46.85;;;21.26;;
54143;SDS011;40050;47.324;18.792;2024-01-11T02:09:59;49.34;;;20.86;;
54143;SDS011;40050;47.324;18.792;2024-01-11T02:12:01;47.29;;;21.16;;
54143;SDS011;40050;47.324;18.792;2024-01-11T02:14:03;50.45;;;22.15;;
54143;SDS011;40050;47.324;18.792;2024-01-11T02:16:04;49.77;;;22.75;;
54143;SDS011;40050;47.324;18.792;2024-01-11T02:18:05;46.70;;;21.06;;
54143;SDS011;40050;47.324;18.792;2024-01-11T02:20:06;50.70;;;21.46;;
54143;SDS011;40050;47.324;18.792;2024-01-11T02:22:08;46.05;;;20.77;;
54143;SDS011;40050;47.324;18.792;2024-01-11T02:24:13;49.03;;;21.27;;
54143;SDS011;40050;47.324;18.792;2024-01-11T02:26:14;45.57;;;20.47;;
54143;SDS011;40050;47.324;18.792;2024-01-11T02:28:17;43.82;;;19.68;;
54143;SDS011;40050;47.324;18.792;2024-01-11T02:30:17;45.26;;;20.57;;
54143;SDS011;40050;47.324;18.792;2024-01-11T02:32:18;46.33;;;21.27;;
54143;SDS011;40050;47.324;18.792;2024-01-11T02:34:19;50.73;;;22.06;;
54143;SDS011;40050;47.324;18.792;2024-01-11T02:36:20;58.20;;;25.93;;
54143;SDS011;40050;47.324;18.792;2024-01-11T02:38:21;54.67;;;23.83;;
54143;SDS011;40050;47.324;18.792;2024-01-11T02:40:22;53.10;;;23.64;;
54143;SDS011;40050;47.324;18.792;2024-01-11T02:42:24;58.67;;;23.93;;
54143;SDS011;40050;47.324;18.792;2024-01-11T02:44:26;53.32;;;22.93;;
54143;SDS011;40050;47.324;18.792;2024-01-11T02:46:27;53.77;;;23.52;;
54143;SDS011;40050;47.324;18.792;2024-01-11T02:48:28;56.42;;;23.52;;
54143;SDS011;40050;47.324;18.792;2024-01-11T02:50:29;50.52;;;22.53;;
54143;SDS011;40050;47.324;18.792;2024-01-11T02:52:30;50.54;;;22.23;;
54143;SDS011;40050;47.324;18.792;2024-01-11T02:54:30;48.57;;;21.54;;
54143;SDS011;40050;47.324;18.792;2024-01-11T02:56:32;51.08;;;22.34;;
54143;SDS011;40050;47.324;18.792;2024-01-11T02:58:33;55.75;;;23.63;;
54143;SDS011;40050;47.324;18.792;2024-01-11T03:00:34;51.07;;;22.53;;
54143;SDS011;40050;47.324;18.792;2024-01-11T03:02:36;56.92;;;25.22;;
54143;SDS011;40050;47.324;18.792;2024-01-11T03:04:36;65.48;;;24.12;;
54143;SDS011;40050;47.324;18.792;2024-01-11T03:06:37;57.26;;;25.31;;
54143;SDS011;40050;47.324;18.792;2024-01-11T03:08:38;59.92;;;25.51;;
54143;SDS011;40050;47.324;18.792;2024-01-11T03:10:39;55.62;;;24.02;;
54143;SDS011;40050;47.324;18.792;2024-01-11T03:12:40;58.77;;;24.91;;
54143;SDS011;40050;47.324;18.792;2024-01-11T03:14:41;52.77;;;23.52;;
54143;SDS011;40050;47.324;18.792;2024-01-11T03:16:41;55.84;;;22.14;;
54143;SDS011;40050;47.324;18.792;2024-01-11T03:18:42;50.42;;;22.93;;
54143;SDS011;40050;47.324;18.792;2024-01-11T03:20:43;55.79;;;24.03;;
54143;SDS011;40050;47.324;18.792;2024-01-11T03:22:45;57.25;;;24.33;;
54143;SDS011;40050;47.324;18.792;2024-01-11T03:24:45;56.58;;;24.82;;
54143;SDS011;40050;47.324;18.792;2024-01-11T03:26:49;59.15;;;25.82;;
54143;SDS011;40050;47.324;18.792;2024-01-11T03:28:50;57.03;;;25.22;;
54143;SDS011;40050;47.324;18.792;2024-01-11T03:30:51;62.39;;;26.91;;
54143;SDS011;40050;47.324;18.792;2024-01-11T03:32:52;60.94;;;24.82;;
54143;SDS011;40050;47.324;18.792;2024-01-11T03:34:53;60.64;;;26.01;;
54143;SDS011;40050;47.324;18.792;2024-01-11T03:36:54;59.16;;;25.31;;
54143;SDS011;40050;47.324;18.792;2024-01-11T03:38:55;56.75;;;25.61;;
54143;SDS011;40050;47.324;18.792;2024-01-11T03:40:56;62.27;;;26.20;;
54143;SDS011;40050;47.324;18.792;2024-01-11T03:42:57;60.27;;;26.10;;
54143;SDS011;40050;47.324;18.792;2024-01-11T03:44:58;63.62;;;27.70;;
54143;SDS011;40050;47.324;18.792;2024-01-11T03:46:59;62.54;;;25.71;;
54143;SDS011;40050;47.324;18.792;2024-01-11T03:49:01;58.95;;;25.32;;
54143;SDS011;40050;47.324;18.792;2024-01-11T03:51:02;69.27;;;28.40;;
54143;SDS011;40050;47.324;18.792;2024-01-11T03:53:03;66.00;;;27.50;;
54143;SDS011;40050;47.324;18.792;2024-01-11T03:55:04;65.98;;;27.00;;
54143;SDS011;40050;47.324;18.792;2024-01-11T03:57:08;69.04;;;27.50;;
54143;SDS011;40050;47.324;18.792;2024-01-11T03:59:10;64.85;;;27.30;;
54143;SDS011;40050;47.324;18.792;2024-01-11T04:01:09;66.18;;;28.19;;
54143;SDS011;40050;47.324;18.792;2024-01-11T04:03:10;65.50;;;27.40;;
54143;SDS011;40050;47.324;18.792;2024-01-11T04:05:12;67.31;;;27.50;;
54143;SDS011;40050;47.324;18.792;2024-01-11T04:07:13;65.57;;;26.90;;
54143;SDS011;40050;47.324;18.792;2024-01-11T04:09:13;62.23;;;27.30;;
54143;SDS011;40050;47.324;18.792;2024-01-11T04:11:14;57.85;;;25.11;;
54143;SDS011;40050;47.324;18.792;2024-01-11T04:13:15;56.64;;;24.32;;
54143;SDS011;40050;47.324;18.792;2024-01-11T04:15:16;55.04;;;24.03;;
54143;SDS011;40050;47.324;18.792;2024-01-11T04:17:17;56.57;;;24.23;;
54143;SDS011;40050;47.324;18.792;2024-01-11T04:19:18;49.43;;;23.83;;
54143;SDS011;40050;47.324;18.792;2024-01-11T04:21:22;53.64;;;24.53;;
54143;SDS011;40050;47.324;18.792;2024-01-11T04:23:20;57.19;;;23.44;;
54143;SDS011;40050;47.324;18.792;2024-01-11T04:25:21;55.84;;;24.13;;
54143;SDS011;40050;47.324;18.792;2024-01-11T04:27:22;58.90;;;25.02;;
54143;SDS011;40050;47.324;18.792;2024-01-11T04:29:23;58.11;;;25.32;;
54143;SDS011;40050;47.324;18.792;2024-01-11T04:31:24;55.60;;;24.33;;
54143;SDS011;40050;47.324;18.792;2024-01-11T04:33:25;59.09;;;24.54;;
54143;SDS011;40050;47.324;18.792;2024-01-11T04:35:26;54.15;;;24.04;;
54143;SDS011;40050;47.324;18.792;2024-01-11T04:37:27;54.79;;;23.15;;
54143;SDS011;40050;47.324;18.792;2024-01-11T04:39:28;56.59;;;24.64;;
54143;SDS011;40050;47.324;18.792;2024-01-11T04:41:29;53.34;;;24.24;;
54143;SDS011;40050;47.324;18.792;2024-01-11T04:43:29;53.22;;;23.84;;
54143;SDS011;40050;47.324;18.792;2024-01-11T04:45:30;57.24;;;24.93;;
54143;SDS011;40050;47.324;18.792;2024-01-11T04:47:31;59.19;;;24.94;;
54143;SDS011;40050;47.324;18.792;2024-01-11T04:49:32;56.30;;;25.03;;
54143;SDS011;40050;47.324;18.792;2024-01-11T04:51:33;56.86;;;24.83;;
54143;SDS011;40050;47.324;18.792;2024-01-11T04:53:40;57.66;;;25.13;;
54143;SDS011;40050;47.324;18.792;2024-01-11T04:55:35;55.92;;;22.85;;
54143;SDS011;40050;47.324;18.792;2024-01-11T04:57:36;51.20;;;22.84;;
54143;SDS011;40050;47.324;18.792;2024-01-11T04:59:37;52.54;;;23.64;;
54143;SDS011;40050;47.324;18.792;2024-01-11T05:01:38;56.31;;;24.04;;
54143;SDS011;40050;47.324;18.792;2024-01-11T05:03:39;59.47;;;24.44;;
54143;SDS011;40050;47.324;18.792;2024-01-11T05:05:40;57.75;;;24.24;;
54143;SDS011;40050;47.324;18.792;2024-01-11T05:07:41;56.12;;;25.03;;
54143;SDS011;40050;47.324;18.792;2024-01-11T05:09:42;51.99;;;24.14;;
54143;SDS011;40050;47.324;18.792;2024-01-11T05:11:46;55.05;;;24.73;;
54143;SDS011;40050;47.324;18.792;2024-01-11T05:13:48;55.11;;;25.04;;
54143;SDS011;40050;47.324;18.792;2024-01-11T05:15:49;54.13;;;24.44;;
54143;SDS011;40050;47.324;18.792;2024-01-11T05:17:50;57.06;;;24.83;;
54143;SDS011;40050;47.324;18.792;2024-01-11T05:19:50;57.05;;;25.23;;
54143;SDS011;40050;47.324;18.792;2024-01-11T05:21:52;57.90;;;24.04;;
54143;SDS011;40050;47.324;18.792;2024-01-11T05:23:53;61.83;;;26.42;;
54143;SDS011;40050;47.324;18.792;2024-01-11T05:25:53;55.52;;;24.73;;
54143;SDS011;40050;47.324;18.792;2024-01-11T05:27:54;59.95;;;25.03;;
54143;SDS011;40050;47.324;18.792;2024-01-11T05:29:55;53.53;;;24.04;;
54143;SDS011;40050;47.324;18.792;2024-01-11T05:31:56;58.76;;;25.63;;
54143;SDS011;40050;47.324;18.792;2024-01-11T05:33:57;59.61;;;25.92;;
54143;SDS011;40050;47.324;18.792;2024-01-11T05:35:58;60.46;;;26.42;;
54143;SDS011;40050;47.324;18.792;2024-01-11T05:37:59;63.50;;;26.71;;
54143;SDS011;40050;47.324;18.792;2024-01-11T05:40:00;65.47;;;27.21;;
54143;SDS011;40050;47.324;18.792;2024-01-11T05:42:01;65.18;;;28.00;;
54143;SDS011;40050;47.324;18.792;2024-01-11T05:44:01;69.01;;;28.59;;
54143;SDS011;40050;47.324;18.792;2024-01-11T05:46:02;66.06;;;26.11;;
54143;SDS011;40050;47.324;18.792;2024-01-11T05:48:03;56.80;;;24.32;;
54143;SDS011;40050;47.324;18.792;2024-01-11T05:50:04;56.09;;;25.02;;
54143;SDS011;40050;47.324;18.792;2024-01-11T05:52:05;54.54;;;24.43;;
54143;SDS011;40050;47.324;18.792;2024-01-11T05:54:06;57.22;;;24.93;;
54143;SDS011;40050;47.324;18.792;2024-01-11T05:56:10;56.54;;;24.83;;
54143;SDS011;40050;47.324;18.792;2024-01-11T05:58:08;51.36;;;23.54;;
54143;SDS011;40050;47.324;18.792;2024-01-11T06:00:09;56.14;;;24.33;;
54143;SDS011;40050;47.324;18.792;2024-01-11T06:02:13;50.51;;;22.94;;
54143;SDS011;40050;47.324;18.792;2024-01-11T06:04:14;54.64;;;24.73;;
54143;SDS011;40050;47.324;18.792;2024-01-11T06:06:14;50.89;;;23.64;;
54143;SDS011;40050;47.324;18.792;2024-01-11T06:08:15;54.32;;;23.83;;
54143;SDS011;40050;47.324;18.792;2024-01-11T06:10:16;55.20;;;23.04;;
54143;SDS011;40050;47.324;18.792;2024-01-11T06:12:17;53.42;;;22.85;;
54143;SDS011;40050;47.324;18.792;2024-01-11T06:14:18;54.25;;;24.23;;
54143;SDS011;40050;47.324;18.792;2024-01-11T06:16:19;59.38;;;24.23;;
54143;SDS011;40050;47.324;18.792;2024-01-11T06:18:20;56.42;;;24.13;;
54143;SDS011;40050;47.324;18.792;2024-01-11T06:20:21;60.24;;;25.03;;
54143;SDS011;40050;47.324;18.792;2024-01-11T06:22:22;57.09;;;25.13;;
54143;SDS011;40050;47.324;18.792;2024-01-11T06:24:23;56.62;;;23.93;;
54143;SDS011;40050;47.324;18.792;2024-01-11T06:26:23;54.32;;;24.63;;
54143;SDS011;40050;47.324;18.792;2024-01-11T06:28:24;57.67;;;24.40;;
54143;SDS011;40050;47.324;18.792;2024-01-11T06:30:25;56.79;;;24.62;;
54143;SDS011;40050;47.324;18.792;2024-01-11T06:32:26;54.46;;;24.83;;
54143;SDS011;40050;47.324;18.792;2024-01-11T06:34:27;56.93;;;25.43;;
54143;SDS011;40050;47.324;18.792;2024-01-11T06:36:29;56.98;;;24.53;;
54143;SDS011;40050;47.324;18.792;2024-01-11T06:38:29;59.85;;;25.32;;
54143;SDS011;40050;47.324;18.792;2024-01-11T06:40:30;60.01;;;25.92;;
54143;SDS011;40050;47.324;18.792;2024-01-11T06:42:31;56.36;;;26.11;;
54143;SDS011;40050;47.324;18.792;2024-01-11T06:44:41;60.32;;;25.41;;
54143;SDS011;40050;47.324;18.792;2024-01-11T06:46:42;63.17;;;27.17;;
54143;SDS011;40050;47.324;18.792;2024-01-11T06:48:43;58.80;;;24.90;;
54143;SDS011;40050;47.324;18.792;2024-01-11T06:50:44;73.05;;;30.26;;
54143;SDS011;40050;47.324;18.792;2024-01-11T06:52:45;67.70;;;30.95;;
54143;SDS011;40050;47.324;18.792;2024-01-11T06:54:46;63.58;;;30.06;;
54143;SDS011;40050;47.324;18.792;2024-01-11T06:56:47;70.88;;;28.96;;
54143;SDS011;40050;47.324;18.792;2024-01-11T06:58:48;59.42;;;26.39;;
54143;SDS011;40050;47.324;18.792;2024-01-11T07:00:49;68.04;;;27.98;;
54143;SDS011;40050;47.324;18.792;2024-01-11T07:02:50;58.17;;;25.90;;
54143;SDS011;40050;47.324;18.792;2024-01-11T07:04:50;57.04;;;24.41;;
54143;SDS011;40050;47.324;18.792;2024-01-11T07:06:52;58.52;;;25.81;;
54143;SDS011;40050;47.324;18.792;2024-01-11T07:08:52;58.67;;;26.19;;
54143;SDS011;40050;47.324;18.792;2024-01-11T07:10:53;59.57;;;25.20;;
54143;SDS011;40050;47.324;18.792;2024-01-11T07:12:54;60.99;;;26.59;;
54143;SDS011;40050;47.324;18.792;2024-01-11T07:14:55;66.83;;;28.57;;
54143;SDS011;40050;47.324;18.792;2024-01-11T07:16:56;77.76;;;31.93;;
54143;SDS011;40050;47.324;18.792;2024-01-11T07:18:57;77.32;;;31.73;;
54143;SDS011;40050;47.324;18.792;2024-01-11T07:20:58;75.73;;;31.81;;
54143;SDS011;40050;47.324;18.792;2024-01-11T07:22:59;99.24;;;41.52;;
54143;SDS011;40050;47.324;18.792;2024-01-11T07:24:59;90.15;;;36.36;;
54143;SDS011;40050;47.324;18.792;2024-01-11T07:27:00;86.76;;;36.24;;
54143;SDS011;40050;47.324;18.792;2024-01-11T07:29:01;90.21;;;37.31;;
54143;SDS011;40050;47.324;18.792;2024-01-11T07:31:02;82.74;;;36.03;;
54143;SDS011;40050;47.324;18.792;2024-01-11T07:33:03;84.61;;;36.01;;
54143;SDS011;40050;47.324;18.792;2024-01-11T07:35:04;84.23;;;35.82;;
54143;SDS011;40050;47.324;18.792;2024-01-11T07:37:05;94.12;;;36.98;;
54143;SDS011;40050;47.324;18.792;2024-01-11T07:39:06;96.11;;;40.53;;
54143;SDS011;40050;47.324;18.792;2024-01-11T07:41:07;97.05;;;40.02;;
54143;SDS011;40050;47.324;18.792;2024-01-11T07:43:08;103.01;;;41.32;;
54143;SDS011;40050;47.324;18.792;2024-01-11T07:45:09;89.20;;;38.56;;
54143;SDS011;40050;47.324;18.792;2024-01-11T07:47:10;92.45;;;38.27;;
54143;SDS011;40050;47.324;18.792;2024-01-11T07:49:11;91.43;;;38.64;;
54143;SDS011;40050;47.324;18.792;2024-01-11T07:51:12;86.97;;;37.05;;
54143;SDS011;40050;47.324;18.792;2024-01-11T07:53:13;85.37;;;36.34;;
54143;SDS011;40050;47.324;18.792;2024-01-11T07:55:14;92.50;;;37.51;;
54143;SDS011;40050;47.324;18.792;2024-01-11T07:57:15;91.83;;;39.16;;
54143;SDS011;40050;47.324;18.792;2024-01-11T07:59:16;89.63;;;38.34;;
54143;SDS011;40050;47.324;18.792;2024-01-11T08:01:18;90.18;;;38.65;;
54143;SDS011;40050;47.324;18.792;2024-01-11T08:03:21;90.65;;;39.34;;
54143;SDS011;40050;47.324;18.792;2024-01-11T08:05:20;88.53;;;38.81;;
54143;SDS011;40050;47.324;18.792;2024-01-11T08:07:22;84.32;;;38.36;;
54143;SDS011;40050;47.324;18.792;2024-01-11T08:09:23;80.38;;;37.56;;
54143;SDS011;40050;47.324;18.792;2024-01-11T08:11:30;84.99;;;37.76;;
54143;SDS011;40050;47.324;18.792;2024-01-11T08:13:28;84.07;;;37.38;;
54143;SDS011;40050;47.324;18.792;2024-01-11T08:15:29;88.37;;;40.20;;
54143;SDS011;40050;47.324;18.792;2024-01-11T08:17:38;93.09;;;41.62;;
54143;SDS011;40050;47.324;18.792;2024-01-11T08:28:45;79.04;;;36.85;;
54143;SDS011;40050;47.324;18.792;2024-01-11T08:30:58;79.09;;;36.63;;
54143;SDS011;40050;47.324;18.792;2024-01-11T08:33:08;73.18;;;32.93;;
54143;SDS011;40050;47.324;18.792;2024-01-11T08:35:15;75.97;;;33.44;;
54143;SDS011;40050;47.324;18.792;2024-01-11T08:37:14;68.64;;;29.80;;
54143;SDS011;40050;47.324;18.792;2024-01-11T08:39:18;63.01;;;27.94;;
54143;SDS011;40050;47.324;18.792;2024-01-11T08:41:23;49.36;;;24.16;;
54143;SDS011;40050;47.324;18.792;2024-01-11T08:43:23;45.41;;;20.52;;
54143;SDS011;40050;47.324;18.792;2024-01-11T08:45:25;45.48;;;21.41;;
54143;SDS011;40050;47.324;18.792;2024-01-11T08:47:35;43.16;;;20.64;;
54143;SDS011;40050;47.324;18.792;2024-01-11T08:49:36;48.41;;;21.93;;
54143;SDS011;40050;47.324;18.792;2024-01-11T08:51:36;44.23;;;21.73;;
54143;SDS011;40050;47.324;18.792;2024-01-11T08:54:00;46.64;;;23.44;;
54143;SDS011;40050;47.324;18.792;2024-01-11T08:56:05;45.91;;;22.46;;
54143;SDS011;40050;47.324;18.792;2024-01-11T08:58:00;46.70;;;22.08;;
54143;SDS011;40050;47.324;18.792;2024-01-11T09:02:18;46.84;;;21.88;;
54143;SDS011;40050;47.324;18.792;2024-01-11T09:04:21;43.91;;;21.88;;
54143;SDS011;40050;47.324;18.792;2024-01-11T09:06:26;39.87;;;20.50;;
54143;SDS011;40050;47.324;18.792;2024-01-11T09:21:36;38.12;;;19.62;;
54143;SDS011;40050;47.324;18.792;2024-01-11T09:47:54;34.24;;;15.87;;
54143;SDS011;40050;47.324;18.792;2024-01-11T09:52:07;36.13;;;16.67;;
54143;SDS011;40050;47.324;18.792;2024-01-11T09:54:16;33.70;;;16.57;;
54143;SDS011;40050;47.324;18.792;2024-01-11T09:56:17;34.30;;;16.57;;
54143;SDS011;40050;47.324;18.792;2024-01-11T10:02:37;31.48;;;16.17;;
54143;SDS011;40050;47.324;18.792;2024-01-11T10:04:40;29.25;;;15.18;;
54143;SDS011;40050;47.324;18.792;2024-01-11T10:10:46;27.70;;;14.48;;
54143;SDS011;40050;47.324;18.792;2024-01-11T10:12:52;25.35;;;12.98;;
54143;SDS011;40050;47.324;18.792;2024-01-11T10:14:53;24.87;;;12.99;;
54143;SDS011;40050;47.324;18.792;2024-01-11T10:16:54;25.57;;;12.29;;
54143;SDS011;40050;47.324;18.792;2024-01-11T10:18:55;23.15;;;11.59;;
54143;SDS011;40050;47.324;18.792;2024-01-11T10:20:56;22.37;;;11.09;;
54143;SDS011;40050;47.324;18.792;2024-01-11T10:23:00;26.62;;;12.69;;
54143;SDS011;40050;47.324;18.792;2024-01-11T10:25:12;23.95;;;11.69;;
54143;SDS011;40050;47.324;18.792;2024-01-11T10:27:01;24.13;;;11.89;;
54143;SDS011;40050;47.324;18.792;2024-01-11T10:29:02;26.51;;;13.29;;
54143;SDS011;40050;47.324;18.792;2024-01-11T10:31:04;25.22;;;13.09;;
54143;SDS011;40050;47.324;18.792;2024-01-11T10:37:40;28.03;;;13.19;;
54143;SDS011;40050;47.324;18.792;2024-01-11T10:39:48;26.62;;;13.89;;
54143;SDS011;40050;47.324;18.792;2024-01-11T10:41:58;28.12;;;14.19;;
54143;SDS011;40050;47.324;18.792;2024-01-11T10:54:38;22.85;;;11.89;;
54143;SDS011;40050;47.324;18.792;2024-01-11T10:56:44;21.87;;;11.29;;
54143;SDS011;40050;47.324;18.792;2024-01-11T10:58:42;24.92;;;11.29;;
54143;SDS011;40050;47.324;18.792;2024-01-11T11:00:43;22.16;;;11.19;;
54143;SDS011;40050;47.324;18.792;2024-01-11T11:03:39;22.17;;;11.49;;
54143;SDS011;40050;47.324;18.792;2024-01-11T11:12:50;22.19;;;10.89;;
54143;SDS011;40050;47.324;18.792;2024-01-11T11:14:47;23.85;;;11.49;;
54143;SDS011;40050;47.324;18.792;2024-01-11T11:16:59;21.39;;;10.79;;
54143;SDS011;40050;47.324;18.792;2024-01-11T11:19:08;21.18;;;10.79;;
54143;SDS011;40050;47.324;18.792;2024-01-11T11:21:20;18.53;;;9.69;;
54143;SDS011;40050;47.324;18.792;2024-01-11T11:23:38;19.33;;;9.69;;
54143;SDS011;40050;47.324;18.792;2024-01-11T11:25:56;20.22;;;10.19;;
54143;SDS011;40050;47.324;18.792;2024-01-11T11:27:57;20.42;;;10.09;;
54143;SDS011;40050;47.324;18.792;2024-01-11T11:29:58;19.32;;;10.09;;
54143;SDS011;40050;47.324;18.792;2024-01-11T11:32:33;20.32;;;10.19;;
54143;SDS011;40050;47.324;18.792;2024-01-11T11:34:24;20.92;;;9.99;;
54143;SDS011;40050;47.324;18.792;2024-01-11T11:36:28;18.23;;;8.99;;
54143;SDS011;40050;47.324;18.792;2024-01-11T11:38:32;17.64;;;8.99;;
54143;SDS011;40050;47.324;18.792;2024-01-11T11:40:47;18.53;;;9.09;;
54143;SDS011;40050;47.324;18.792;2024-01-11T11:45:11;18.83;;;9.69;;
54143;SDS011;40050;47.324;18.792;2024-01-11T11:47:54;19.53;;;10.19;;
54143;SDS011;40050;47.324;18.792;2024-01-11T11:50:02;22.69;;;10.19;;
54143;SDS011;40050;47.324;18.792;2024-01-11T11:52:19;20.32;;;10.49;;
54143;SDS011;40050;47.324;18.792;2024-01-11T12:22:02;21.41;;;10.19;;
54143;SDS011;40050;47.324;18.792;2024-01-11T12:24:04;21.32;;;10.89;;
54143;SDS011;40050;47.324;18.792;2024-01-11T12:26:25;19.73;;;10.49;;
54143;SDS011;40050;47.324;18.792;2024-01-11T12:28:16;21.62;;;9.99;;
54143;SDS011;40050;47.324;18.792;2024-01-11T12:30:28;23.90;;;10.79;;
54143;SDS011;40050;47.324;18.792;2024-01-11T12:32:22;23.89;;;11.59;;
54143;SDS011;40050;47.324;18.792;2024-01-11T12:38:34;24.19;;;10.99;;
54143;SDS011;40050;47.324;18.792;2024-01-11T12:40:36;22.69;;;10.49;;
54143;SDS011;40050;47.324;18.792;2024-01-11T12:42:37;20.13;;;10.19;;
54143;SDS011;40050;47.324;18.792;2024-01-11T12:46:53;19.71;;;9.89;;
54143;SDS011;40050;47.324;18.792;2024-01-11T12:48:57;17.55;;;9.09;;
54143;SDS011;40050;47.324;18.792;2024-01-11T12:53:13;23.28;;;10.09;;
54143;SDS011;40050;47.324;18.792;2024-01-11T12:57:42;20.12;;;10.79;;
54143;SDS011;40050;47.324;18.792;2024-01-11T12:59:43;21.12;;;10.49;;
54143;SDS011;40050;47.324;18.792;2024-01-11T13:01:51;21.71;;;10.89;;
54143;SDS011;40050;47.324;18.792;2024-01-11T13:03:50;22.40;;;10.39;;
54143;SDS011;40050;47.324;18.792;2024-01-11T13:05:51;21.21;;;10.79;;
54143;SDS011;40050;47.324;18.792;2024-01-11T13:07:52;21.90;;;11.19;;
54143;SDS011;40050;47.324;18.792;2024-01-11T13:09:54;19.91;;;9.59;;
54143;SDS011;40050;47.324;18.792;2024-01-11T13:11:54;16.35;;;8.49;;
54143;SDS011;40050;47.324;18.792;2024-01-11T13:13:55;16.35;;;8.59;;
54143;SDS011;40050;47.324;18.792;2024-01-11T13:15:56;17.63;;;8.39;;
54143;SDS011;40050;47.324;18.792;2024-01-11T13:18:00;13.98;;;7.50;;
54143;SDS011;40050;47.324;18.792;2024-01-11T13:20:01;13.39;;;7.30;;
54143;SDS011;40050;47.324;18.792;2024-01-11T13:22:02;15.08;;;7.10;;
54143;SDS011;40050;47.324;18.792;2024-01-11T13:24:03;13.09;;;7.10;;
54143;SDS011;40050;47.324;18.792;2024-01-11T13:26:03;15.08;;;7.80;;
54143;SDS011;40050;47.324;18.792;2024-01-11T13:28:04;18.06;;;8.80;;
54143;SDS011;40050;47.324;18.792;2024-01-11T13:30:05;14.40;;;7.40;;
54143;SDS011;40050;47.324;18.792;2024-01-11T13:32:06;12.91;;;7.10;;
54143;SDS011;40050;47.324;18.792;2024-01-11T13:34:07;15.99;;;7.70;;
54143;SDS011;40050;47.324;18.792;2024-01-11T13:36:09;15.78;;;7.00;;
54143;SDS011;40050;47.324;18.792;2024-01-11T13:38:10;16.38;;;7.80;;
54143;SDS011;40050;47.324;18.792;2024-01-11T13:40:11;12.90;;;6.80;;
54143;SDS011;40050;47.324;18.792;2024-01-11T13:42:12;14.59;;;7.20;;
54143;SDS011;40050;47.324;18.792;2024-01-11T13:44:13;14.49;;;6.70;;
54143;SDS011;40050;47.324;18.792;2024-01-11T13:46:14;13.30;;;6.90;;
54143;SDS011;40050;47.324;18.792;2024-01-11T13:48:14;14.30;;;6.70;;